M I D A S
Marine Information and Data Acquisition System
Tripno 2046 of the Zeeleeuw from 2011-02-23 07:51:06 to 2011-02-23 15:02:59
Back to CruiseResearch ActivitiesStationsMapUnderway DataData graphs

EquipmentUnitsComment
TimeDGPSUTC
LatitudeDGPSDM.mWGS84
LongitudeDGPSDM.mWGS84
HeadingGyrodeg 
SOGDGPSknotsSpeed over ground
COGDGPSdegCourse over ground
DepthEcho soundermeters200 kHz
Missing or incorrect values are displayed as -999
Navigation data collected by the RV Zeeleeuw from 2011-02-23 06:56:33 to 2011-02-23 15:09:00
Time Latitude Longitude Heading SOG COG Depth
2011-02-23 06:57:38 51°13.665 2°55.957 126.3 -999 87 -999
2011-02-23 06:58:38 51°13.662 2°55.959 126.3 0.1 333 -999
2011-02-23 06:59:38 51°13.662 2°55.96 126.1 0.1 287 -999
2011-02-23 07:00:38 51°13.662 2°55.961 126.1 0.1 77 -999
2011-02-23 07:01:38 51°13.663 2°55.96 125.8 0.1 85 -999
2011-02-23 07:02:38 51°13.663 2°55.962 126.1 -999 224 -999
2011-02-23 07:03:38 51°13.662 2°55.961 125.8 -999 272 -999
2011-02-23 07:04:38 51°13.663 2°55.96 125.2 0.1 354 -999
2011-02-23 07:05:37 51°13.663 2°55.96 125.1 -999 152 -999
2011-02-23 07:06:38 51°13.662 2°55.96 126 -999 259 -999
2011-02-23 07:07:38 51°13.663 2°55.959 124.4 0.2 303 -999
2011-02-23 07:08:38 51°13.663 2°55.96 125.2 0.1 111 -999
2011-02-23 07:09:38 51°13.663 2°55.96 125.5 -999 36 -999
2011-02-23 07:10:38 51°13.663 2°55.96 125.7 0.1 99 -999
2011-02-23 07:11:38 51°13.663 2°55.96 127 -999 200 -999
2011-02-23 07:12:38 51°13.662 2°55.96 127.1 -999 274 -999
2011-02-23 07:13:38 51°13.662 2°55.96 126.2 0.1 127 -999
2011-02-23 07:14:38 51°13.662 2°55.96 126.4 0.1 260 -999
2011-02-23 07:15:38 51°13.662 2°55.96 127.4 0.1 95 -999
2011-02-23 07:16:38 51°13.662 2°55.96 127 0.1 277 -999
2011-02-23 07:17:37 51°13.661 2°55.959 126.7 -999 82 -999
2011-02-23 07:18:38 51°13.661 2°55.959 126.8 0.1 251 -999
2011-02-23 07:19:38 51°13.661 2°55.959 126.7 0.1 208 -999
2011-02-23 07:20:38 51°13.661 2°55.959 126.1 0.1 349 -999
2011-02-23 07:21:38 51°13.66 2°55.96 125.9 0.1 137 -999
2011-02-23 07:22:37 51°13.661 2°55.959 126.5 -999 2 -999
2011-02-23 07:23:37 51°13.661 2°55.959 126.7 0.1 192 -999
2011-02-23 07:24:38 51°13.661 2°55.959 126.6 -999 324 -999
2011-02-23 07:25:38 51°13.661 2°55.96 126.4 0.1 186 -999
2011-02-23 07:26:38 51°13.661 2°55.96 126.5 -999 237 -999
2011-02-23 07:27:38 51°13.661 2°55.96 126.7 -999 185 -999
2011-02-23 07:28:38 51°13.662 2°55.96 126 -999 306 -999
2011-02-23 07:29:38 51°13.663 2°55.959 126.2 -999 26 -999
2011-02-23 07:30:38 51°13.664 2°55.959 126.2 -999 277 -999
2011-02-23 07:31:38 51°13.663 2°55.96 126.5 0.1 10 -999
2011-02-23 07:32:38 51°13.663 2°55.959 126.4 0.1 179 -999
2011-02-23 07:33:38 51°13.664 2°55.959 126.4 0.1 197 -999
2011-02-23 07:34:38 51°13.664 2°55.959 126.4 -999 152 -999
2011-02-23 07:35:38 51°13.664 2°55.959 126.2 0.1 199 -999
2011-02-23 07:36:38 51°13.664 2°55.959 126.1 0.1 179 -999
2011-02-23 07:37:38 51°13.665 2°55.96 126 0.1 182 -999
2011-02-23 07:38:37 51°13.663 2°55.96 126 0.2 175 -999
2011-02-23 07:39:38 51°13.664 2°55.96 126.2 0.2 9 -999
2011-02-23 07:40:37 51°13.664 2°55.96 125.7 0.1 169 8
2011-02-23 07:41:38 51°13.664 2°55.961 127.5 -999 70 -999
2011-02-23 07:42:38 51°13.664 2°55.961 129.3 0.1 185 -999
2011-02-23 07:43:38 51°13.664 2°55.962 129.4 0.1 167 -999
2011-02-23 07:44:37 51°13.664 2°55.962 129.1 0.1 357 -999
2011-02-23 07:45:38 51°13.664 2°55.962 128.5 0.1 168 -999
2011-02-23 07:46:38 51°13.665 2°55.963 128.8 -999 73 -999
2011-02-23 07:47:38 51°13.664 2°55.962 128.1 -999 307 -999
2011-02-23 07:48:38 51°13.663 2°55.962 128 0.1 8 -999
2011-02-23 07:49:37 51°13.662 2°55.961 128.8 0.1 8 -999
2011-02-23 07:50:38 51°13.662 2°55.961 128.8 -999 7 -999
2011-02-23 07:51:38 51°13.662 2°55.961 128.8 0.2 357 -999
2011-02-23 07:52:37 51°13.661 2°55.96 128.8 0.1 167 -999
2011-02-23 07:53:37 51°13.661 2°55.961 128.9 -999 85 -999
2011-02-23 07:54:38 51°13.662 2°55.961 129.3 0.1 346 -999
2011-02-23 07:55:38 51°13.662 2°55.961 126.4 0.1 26 -999
2011-02-23 07:56:38 51°13.661 2°55.961 117.3 0.1 195 -999
2011-02-23 07:57:38 51°13.666 2°55.94 112.1 2.6 295 -999
2011-02-23 07:58:37 51°13.687 2°55.857 101.9 4.1 284 -999
2011-02-23 07:59:38 51°13.69 2°55.748 74.6 3.5 260 -999
2011-02-23 08:00:37 51°13.725 2°55.731 350.7 5.2 340 -999
2011-02-23 08:01:37 51°13.827 2°55.638 330.3 7.9 331 10.1
2011-02-23 08:02:37 51°13.95 2°55.543 336.2 8.5 335 -999
2011-02-23 08:03:36 51°14.078 2°55.449 336 8.9 333 10.1
2011-02-23 08:04:37 51°14.224 2°55.331 332.5 10.3 331 4.8
2011-02-23 08:05:35 51°14.375 2°55.185 328.8 11.5 325 4.9
2011-02-23 08:06:34 51°14.539 2°55.006 325.1 12.7 320 11
2011-02-23 08:07:34 51°14.712 2°54.786 328.9 13.4 325 11.2
2011-02-23 08:08:34 51°14.9 2°54.597 334 13.5 330 11.6
2011-02-23 08:09:34 51°15.084 2°54.403 323.7 13.3 321 10
2011-02-23 08:10:34 51°15.255 2°54.172 325.1 13.5 323 11.3
2011-02-23 08:11:34 51°15.429 2°53.95 323 13.5 320 11.1
2011-02-23 08:12:34 51°15.607 2°53.719 326.5 13.9 323 11.3
2011-02-23 08:13:34 51°15.788 2°53.491 328.2 13.8 321 11.6
2011-02-23 08:14:34 51°15.976 2°53.287 330.5 13.6 326 11.2
2011-02-23 08:15:34 51°16.17 2°53.103 334.5 13.5 328 11.3
2011-02-23 08:16:33 51°16.366 2°52.939 341.1 13.6 337 11.4
2011-02-23 08:17:34 51°16.575 2°52.786 339.9 13.6 335 11.1
2011-02-23 08:18:33 51°16.78 2°52.666 351.2 13.3 348 9.2
2011-02-23 08:19:34 51°16.998 2°52.573 347.6 13.4 344 9.1
2011-02-23 08:20:33 51°17.211 2°52.493 348.5 13.4 343 9.6
2011-02-23 08:21:34 51°17.419 2°52.339 339.3 13.6 335 9.9
2011-02-23 08:22:33 51°17.621 2°52.186 339.3 13.7 336 10.7
2011-02-23 08:23:34 51°17.829 2°52.029 339.8 13.5 336 10.3
2011-02-23 08:24:34 51°18.032 2°51.875 338.8 13.6 335 9.8
2011-02-23 08:25:33 51°18.234 2°51.721 339.7 13.7 334 10.8
2011-02-23 08:26:34 51°18.435 2°51.532 334.1 13.8 329 12.1
2011-02-23 08:27:33 51°18.63 2°51.352 334.3 13.8 329 13.3
2011-02-23 08:28:34 51°18.828 2°51.161 334.1 13.8 330 13.9
2011-02-23 08:29:33 51°19.017 2°50.965 331.8 13.7 327 14.3
2011-02-23 08:30:34 51°19.211 2°50.761 332.4 13.7 326 13.7
2011-02-23 08:31:34 51°19.401 2°50.555 331.1 13.8 326 11.7
2011-02-23 08:32:34 51°19.592 2°50.346 330.9 14.1 326 11.6
2011-02-23 08:33:34 51°19.785 2°50.14 328.8 14 324 13.6
2011-02-23 08:34:33 51°19.974 2°49.939 331.3 13.9 325 15.6
2011-02-23 08:35:34 51°20.167 2°49.728 330.6 13.7 325 18.5
2011-02-23 08:36:33 51°20.353 2°49.533 332.4 13.6 325 21.4
2011-02-23 08:37:34 51°20.543 2°49.318 330.2 13.9 323 22.2
2011-02-23 08:38:33 51°20.732 2°49.12 335.5 14 330 22.3
2011-02-23 08:39:34 51°20.934 2°48.923 335.5 14 329 21.1
2011-02-23 08:40:33 51°21.133 2°48.743 337.6 13.9 331 20.1
2011-02-23 08:41:34 51°21.339 2°48.563 336.3 13.7 332 20.9
2011-02-23 08:42:34 51°21.538 2°48.389 336.6 13.8 331 22.6
2011-02-23 08:43:33 51°21.735 2°48.212 336.9 13.9 332 22.9
2011-02-23 08:44:34 51°21.938 2°48.027 337.6 13.9 332 23.2
2011-02-23 08:45:33 51°22.135 2°47.842 335.2 14 329 23.1
2011-02-23 08:46:34 51°22.338 2°47.651 336.1 14 329 15.3
2011-02-23 08:47:33 51°22.537 2°47.475 336.1 13.9 328 14.9
2011-02-23 08:48:34 51°22.744 2°47.291 335 14 330 19.7
2011-02-23 08:49:33 51°22.943 2°47.114 336.4 13.8 330 17.3
2011-02-23 08:50:34 51°23.148 2°46.923 335.8 13.9 331 22.1
2011-02-23 08:51:34 51°23.35 2°46.737 336 13.9 331 22.8
2011-02-23 08:52:34 51°23.553 2°46.552 337.1 14.1 330 23.9
2011-02-23 08:53:34 51°23.758 2°46.372 336.4 14.3 331 29.4
2011-02-23 08:54:34 51°23.961 2°46.194 338.9 14 334 25.7
2011-02-23 08:55:34 51°24.166 2°46.031 340.4 13.7 333 29.4
2011-02-23 08:56:33 51°24.367 2°45.875 341.5 13.8 335 25.7
2011-02-23 08:57:34 51°24.575 2°45.712 340.4 13.6 335 25.4
2011-02-23 08:58:33 51°24.779 2°45.557 336.2 13.7 330 25.2
2011-02-23 08:59:34 51°24.986 2°45.396 339.8 13.8 337 24.5
2011-02-23 09:00:34 51°25.197 2°45.262 353 13.4 351 25.1
2011-02-23 09:01:34 51°25.412 2°45.318 24 13 19 24.4
2011-02-23 09:02:34 51°25.591 2°45.502 53.1 12.8 50 23.9
2011-02-23 09:03:34 51°25.709 2°45.786 61.6 12.8 56 23.9
2011-02-23 09:04:34 51°25.832 2°46.065 61.1 12.7 55 24.5
2011-02-23 09:05:33 51°25.948 2°46.346 61.8 12.8 60 23.2
2011-02-23 09:06:34 51°26.061 2°46.641 64.7 12.7 58 22.9
2011-02-23 09:07:33 51°26.169 2°46.928 64.5 12.6 57 23.9
2011-02-23 09:08:34 51°26.282 2°47.223 64.2 12.7 61 20.5
2011-02-23 09:09:34 51°26.39 2°47.521 66.4 12.8 62 22.7
2011-02-23 09:10:34 51°26.499 2°47.814 63.7 12.8 57 22.3
2011-02-23 09:11:34 51°26.611 2°48.1 63.9 12.9 59 21.7
2011-02-23 09:12:34 51°26.717 2°48.389 65.7 12.5 59 21.5
2011-02-23 09:13:34 51°26.822 2°48.68 65.5 12.6 59 22.2
2011-02-23 09:14:33 51°26.931 2°48.966 63.3 12.9 59 22.6
2011-02-23 09:15:34 51°27.04 2°49.258 63 12.5 60 22.3
2011-02-23 09:16:33 51°27.144 2°49.544 64 12.5 58 22
2011-02-23 09:17:34 51°27.251 2°49.839 66 12.7 59 22.4
2011-02-23 09:18:34 51°27.357 2°50.131 63.4 12.6 57 23.3
2011-02-23 09:19:34 51°27.463 2°50.421 61.4 12.5 56 22.2
2011-02-23 09:20:34 51°27.574 2°50.706 61.5 12.7 56 22.6
2011-02-23 09:21:34 51°27.686 2°50.991 60.8 12.5 56 22.1
2011-02-23 09:22:34 51°27.802 2°51.275 61.9 12.7 56 22.4
2011-02-23 09:23:33 51°27.913 2°51.559 63.4 12.6 61 22.5
2011-02-23 09:24:34 51°28.032 2°51.844 61.6 12.7 55 22.6
2011-02-23 09:25:33 51°28.142 2°52.122 61.9 12.7 54 22.8
2011-02-23 09:26:34 51°28.26 2°52.414 63.2 12.8 59 22.1
2011-02-23 09:27:34 51°28.373 2°52.703 60.6 12.7 56 23.2
2011-02-23 09:28:34 51°28.488 2°52.988 62.6 12.9 58 23.4
2011-02-23 09:29:34 51°28.598 2°53.285 63.7 13.1 58 23.9
2011-02-23 09:30:34 51°28.709 2°53.575 63 12.7 59 24.1
2011-02-23 09:31:34 51°28.824 2°53.861 61.5 12.6 55 24.3
2011-02-23 09:32:33 51°28.93 2°54.144 65.4 12.3 61 24.7
2011-02-23 09:33:34 51°29.043 2°54.437 64.7 12.5 64 25.2
2011-02-23 09:34:33 51°29.156 2°54.714 62.6 12.6 58 26.3
2011-02-23 09:35:34 51°29.271 2°55 62.8 12.5 59 25.5
2011-02-23 09:36:33 51°29.376 2°55.285 63.5 12.7 59 25.5
2011-02-23 09:37:34 51°29.487 2°55.573 61 12.4 56 26.6
2011-02-23 09:38:34 51°29.597 2°55.862 64.4 12.6 60 26.9
2011-02-23 09:39:34 51°29.709 2°56.147 60.1 12.8 54 26.3
2011-02-23 09:40:34 51°29.822 2°56.44 62.8 12.7 58 27.2
2011-02-23 09:41:33 51°29.933 2°56.727 62.5 12.9 60 26.6
2011-02-23 09:42:34 51°30.045 2°57.02 60.6 12.5 56 26.6
2011-02-23 09:43:33 51°30.155 2°57.299 62.2 12.9 59 26.1
2011-02-23 09:44:34 51°30.267 2°57.584 59.6 12.3 56 26.7
2011-02-23 09:45:33 51°30.375 2°57.857 61.1 12.4 56 27.4
2011-02-23 09:46:34 51°30.486 2°58.141 63.3 12.3 58 27.3
2011-02-23 09:47:34 51°30.594 2°58.421 62.4 12.3 58 27
2011-02-23 09:48:34 51°30.701 2°58.698 64.1 12 59 26.9
2011-02-23 09:49:34 51°30.806 2°58.977 66 11.8 61 26.6
2011-02-23 09:50:33 51°30.907 2°59.253 64.8 12.1 61 26.9
2011-02-23 09:51:34 51°31.013 2°59.539 63 12.4 61 26.7
2011-02-23 09:52:33 51°31.116 2°59.816 61.1 12.4 57 26.6
2011-02-23 09:53:34 51°31.237 3°0.081 53.8 12 48 26.4
2011-02-23 09:54:34 51°31.372 3°0.328 54.3 12.4 53 26.1
2011-02-23 09:55:34 51°31.506 3°0.578 54.2 12.6 52 25
2011-02-23 09:56:34 51°31.607 3°0.861 64.8 11.8 61 24.1
2011-02-23 09:57:34 51°31.705 3°1.144 65.5 12.1 60 26.2
2011-02-23 09:58:34 51°31.803 3°1.43 63.6 12.1 61 25.7
2011-02-23 09:59:33 51°31.9 3°1.713 63.7 12.5 59 25.7
2011-02-23 10:00:34 51°32 3°2.003 63.3 12.1 59 25.3
2011-02-23 10:01:33 51°32.096 3°2.28 64.3 12 59 26.3
2011-02-23 10:02:34 51°32.195 3°2.571 64.5 12.4 59 26.4
2011-02-23 10:03:33 51°32.289 3°2.854 64.6 12.3 61 27.4
2011-02-23 10:04:34 51°32.393 3°3.146 63.7 12.2 59 27.7
2011-02-23 10:05:34 51°32.509 3°3.42 58.7 12.6 56 27.6
2011-02-23 10:06:34 51°32.64 3°3.679 41.4 12.5 34 28.4
2011-02-23 10:07:34 51°32.835 3°3.65 332.5 12.7 321 24.8
2011-02-23 10:08:33 51°32.966 3°3.37 313.4 13.6 309 19.9
2011-02-23 10:09:34 51°33.114 3°3.086 314.4 13.6 310 18.2
2011-02-23 10:10:33 51°33.263 3°2.815 314.4 13.6 313 22
2011-02-23 10:11:34 51°33.417 3°2.541 315.5 13.7 312 24
2011-02-23 10:12:33 51°33.543 3°2.253 291.7 13.2 285 31.8
2011-02-23 10:13:34 51°33.487 3°1.927 230.2 13 230 33.2
2011-02-23 10:14:34 51°33.342 3°1.654 229 13.5 231 33
2011-02-23 10:15:34 51°33.199 3°1.374 229.3 13.5 231 32.2
2011-02-23 10:16:34 51°33.059 3°1.09 230.1 13.6 231 32.2
2011-02-23 10:17:33 51°32.919 3°0.811 230.2 13.6 232 31.8
2011-02-23 10:18:34 51°32.775 3°0.524 229.4 13.6 230 31.2
2011-02-23 10:19:33 51°32.635 3°0.242 230 13.8 231 31.7
2011-02-23 10:20:34 51°32.49 2°59.951 230.2 13.8 232 31.8
2011-02-23 10:21:33 51°32.349 2°59.667 229.4 13.8 231 33.3
2011-02-23 10:22:34 51°32.202 2°59.376 230.1 13.9 231 32.1
2011-02-23 10:23:33 51°32.059 2°59.091 231.3 13.9 232 32
2011-02-23 10:24:34 51°31.914 2°58.794 230.7 13.9 232 32.3
2011-02-23 10:25:34 51°31.778 2°58.492 233.8 14.1 235 31.6
2011-02-23 10:26:33 51°31.647 2°58.191 234.4 13.9 234 32
2011-02-23 10:27:34 51°31.511 2°57.878 234.6 14.1 235 32
2011-02-23 10:28:33 51°31.38 2°57.575 235 14 236 33.3
2011-02-23 10:29:34 51°31.247 2°57.261 234.4 13.9 236 30.7
2011-02-23 10:30:33 51°31.12 2°56.956 234.4 14 238 30.8
2011-02-23 10:31:34 51°30.985 2°56.641 233.8 14.3 236 32.2
2011-02-23 10:32:33 51°30.853 2°56.333 233.8 14.2 236 31.8
2011-02-23 10:33:34 51°30.716 2°56.013 234 14.2 236 33.9
2011-02-23 10:34:34 51°30.582 2°55.7 234.6 14.3 236 34.6
2011-02-23 10:35:33 51°30.459 2°55.379 239.4 14.3 239 35.9
2011-02-23 10:36:34 51°30.334 2°55.044 238.5 14.4 239 34.9
2011-02-23 10:37:33 51°30.214 2°54.722 238 14.2 238 33.6
2011-02-23 10:38:34 51°30.027 2°54.547 184.4 13 186 32.1
2011-02-23 10:39:33 51°29.811 2°54.531 182.6 13.3 187 30.4
2011-02-23 10:40:34 51°29.585 2°54.483 184.1 13.5 188 28.8
2011-02-23 10:41:33 51°29.367 2°54.436 184 13.5 189 27.8
2011-02-23 10:42:34 51°29.144 2°54.352 189.4 13.6 194 26
2011-02-23 10:43:34 51°28.934 2°54.212 204.8 13.9 209 24.9
2011-02-23 10:44:33 51°28.735 2°54.035 206.4 14 214 23.7
2011-02-23 10:45:34 51°28.572 2°53.757 227.6 14.2 229 23.2
2011-02-23 10:46:33 51°28.433 2°53.459 237.5 14.3 238 22.4
2011-02-23 10:47:34 51°28.305 2°53.13 237.4 14.3 237 20.7
2011-02-23 10:48:33 51°28.181 2°52.811 237.6 14.4 238 21.6
2011-02-23 10:49:33 51°28.056 2°52.483 238.8 14.5 238 20.2
2011-02-23 10:50:33 51°27.935 2°52.154 238.5 14.4 239 21.7
2011-02-23 10:51:33 51°27.811 2°51.825 238.8 14.4 239 20.8
2011-02-23 10:52:33 51°27.69 2°51.495 239.2 14.4 239 19.6
2011-02-23 10:53:33 51°27.59 2°51.147 250.5 14.4 250 20.5
2011-02-23 10:54:34 51°27.504 2°50.783 249.1 14.4 248 21.8
2011-02-23 10:55:33 51°27.422 2°50.431 252.1 14.3 253 21.8
2011-02-23 10:56:33 51°27.37 2°50.058 260.1 14.4 259 22.9
2011-02-23 10:57:33 51°27.322 2°49.683 260.6 14.3 258 22.7
2011-02-23 10:58:33 51°27.263 2°49.31 256 14.4 255 24.1
2011-02-23 10:59:33 51°27.203 2°48.938 256.8 14.4 256 23.5
2011-02-23 11:00:32 51°27.142 2°48.573 256.4 14.4 256 24.6
2011-02-23 11:01:34 51°27.077 2°48.189 256.3 14.4 255 24.7
2011-02-23 11:02:33 51°27.018 2°47.824 256.3 14.5 255 24.6
2011-02-23 11:03:34 51°26.955 2°47.448 256.6 14.4 256 25.7
2011-02-23 11:04:34 51°26.894 2°47.079 255.9 14.4 255 25.2
2011-02-23 11:05:34 51°26.833 2°46.71 256.3 14.3 254 28.6
2011-02-23 11:06:34 51°26.779 2°46.339 259.7 14.3 258 27.8
2011-02-23 11:07:34 51°26.729 2°45.968 259.2 14.2 259 27.8
2011-02-23 11:08:34 51°26.677 2°45.599 258.7 14.2 257 28
2011-02-23 11:09:34 51°26.624 2°45.227 259 14.5 257 27.4
2011-02-23 11:10:32 51°26.571 2°44.863 259.8 14.6 257 27.2
2011-02-23 11:11:34 51°26.537 2°44.474 279.9 13.8 282 28.6
2011-02-23 11:12:34 51°26.689 2°44.261 351.8 12.4 346 25.1
2011-02-23 11:13:34 51°26.893 2°44.197 359.7 12.2 350 21.9
2011-02-23 11:14:34 51°27.095 2°44.143 357.9 12.1 351 24.8
2011-02-23 11:15:34 51°27.297 2°44.091 359.2 12.3 351 23.5
2011-02-23 11:16:34 51°27.501 2°44.037 359.1 12.2 351 25.3
2011-02-23 11:17:32 51°27.697 2°43.989 357.4 12.5 351 25.7
2011-02-23 11:18:34 51°27.911 2°43.939 356.6 12.5 351 29.1
2011-02-23 11:19:32 51°28.105 2°43.934 11.1 11.8 6 29.8
2011-02-23 11:20:32 51°28.3 2°43.974 12.6 11.8 6 29.5
2011-02-23 11:21:34 51°28.503 2°44.004 14 11.9 10 29.4
2011-02-23 11:22:32 51°28.689 2°44.068 18.5 11.9 18 27.6
2011-02-23 11:23:33 51°28.884 2°44.168 23.5 11.9 22 27.4
2011-02-23 11:24:33 51°29.063 2°44.296 31.2 11.7 26 24.3
2011-02-23 11:25:33 51°29.235 2°44.445 33.4 11.6 31 22.9
2011-02-23 11:26:33 51°29.41 2°44.595 35.5 11.6 33 28
2011-02-23 11:27:32 51°29.574 2°44.756 34.8 11.7 27 29.5
2011-02-23 11:28:32 51°29.739 2°44.919 37.7 12 33 29.3
2011-02-23 11:29:32 51°29.904 2°45.093 36.2 11.8 34 30.2
2011-02-23 11:30:34 51°30.074 2°45.26 33.7 11.7 31 30.2
2011-02-23 11:31:32 51°30.222 2°45.45 44.4 11.4 42 30.4
2011-02-23 11:32:33 51°30.366 2°45.657 46.3 11.3 46 29.6
2011-02-23 11:33:33 51°30.508 2°45.866 46.5 11.5 45 29
2011-02-23 11:34:33 51°30.625 2°46.103 67.9 11.5 66 27.8
2011-02-23 11:35:33 51°30.686 2°46.395 71.9 11.7 73 25.4
2011-02-23 11:36:33 51°30.744 2°46.691 73.9 11.4 70 26.9
2011-02-23 11:37:32 51°30.779 2°46.987 85.8 11.7 91 26
2011-02-23 11:38:32 51°30.78 2°47.303 86.5 11.7 86 28
2011-02-23 11:39:34 51°30.786 2°47.628 84 12 82 29
2011-02-23 11:40:32 51°30.792 2°47.933 85.4 12.1 91 28.7
2011-02-23 11:41:33 51°30.801 2°48.255 84.6 11.7 88 25.9
2011-02-23 11:42:33 51°30.812 2°48.571 85 11.8 87 25.4
2011-02-23 11:43:33 51°30.822 2°48.886 83.1 11.9 91 23.7
2011-02-23 11:44:33 51°30.836 2°49.198 84.3 11.8 86 26
2011-02-23 11:45:33 51°30.826 2°49.516 94.1 11.9 98 25.9
2011-02-23 11:46:32 51°30.798 2°49.827 95.1 12 94 25
2011-02-23 11:47:32 51°30.776 2°50.145 89 11.8 91 24.8
2011-02-23 11:48:32 51°30.788 2°50.465 81.4 11.9 87 25.6
2011-02-23 11:49:32 51°30.822 2°50.775 78.4 11.8 77 23.9
2011-02-23 11:50:32 51°30.854 2°51.086 79.8 11.6 80 20.6
2011-02-23 11:51:32 51°30.888 2°51.401 79.9 11.8 82 21.7
2011-02-23 11:52:33 51°30.962 2°51.689 63.9 11.5 64 21.3
2011-02-23 11:53:33 51°31.052 2°51.965 64.7 11.6 59 22.5
2011-02-23 11:54:34 51°31.142 2°52.244 61.8 11.5 61 20.9
2011-02-23 11:55:32 51°31.225 2°52.517 66.5 11.7 66 19.9
2011-02-23 11:56:32 51°31.304 2°52.799 65.2 11.7 61 19.3
2011-02-23 11:57:34 51°31.384 2°53.094 69 11.5 67 19.9
2011-02-23 11:58:32 51°31.461 2°53.369 65.5 11.8 66 19.6
2011-02-23 11:59:32 51°31.538 2°53.649 67.1 11.4 65 19.8
2011-02-23 12:00:33 51°31.621 2°53.933 64.7 11.7 66 19.6
2011-02-23 12:01:33 51°31.704 2°54.216 63.1 11.7 62 20.1
2011-02-23 12:02:33 51°31.801 2°54.483 61.3 11.5 62 18.7
2011-02-23 12:03:33 51°31.895 2°54.754 60.5 11.5 61 21.1
2011-02-23 12:04:32 51°31.996 2°55.014 56.7 11.6 56 20.7
2011-02-23 12:05:32 51°32.066 2°55.305 76.1 11.8 76 21.5
2011-02-23 12:06:34 51°32.117 2°55.623 69.1 11.7 71 20.4
2011-02-23 12:07:32 51°32.22 2°55.867 49.1 11.6 50 18.6
2011-02-23 12:08:32 51°32.379 2°56.05 34.6 11.8 30 21.1
2011-02-23 12:09:33 51°32.559 2°56.188 24.8 11.8 20 21.5
2011-02-23 12:10:33 51°32.722 2°56.356 46 11.6 43 23.7
2011-02-23 12:11:33 51°32.857 2°56.587 46.5 11.7 46 23.1
2011-02-23 12:12:33 51°32.985 2°56.826 43.8 11.6 39 23.8
2011-02-23 12:13:33 51°33.097 2°57.076 70.6 11.6 73 21.4
2011-02-23 12:14:34 51°33.188 2°57.358 57.5 11.7 57 22.6
2011-02-23 12:15:32 51°33.281 2°57.622 61.9 11.4 55 22.5
2011-02-23 12:16:32 51°33.39 2°57.873 67.6 12 72 22.6
2011-02-23 12:17:32 51°33.462 2°58.163 56.3 12 61 18.9
2011-02-23 12:18:32 51°33.551 2°58.427 40.7 11.6 38 19.7
2011-02-23 12:19:33 51°33.657 2°58.687 63.8 11.7 67 17.9
2011-02-23 12:20:33 51°33.761 2°58.952 75.1 11.6 83 18.9
2011-02-23 12:21:33 51°33.845 2°59.224 54.8 11.6 58 18.9
2011-02-23 12:22:33 51°33.954 2°59.479 55.9 11.8 60 18.5
2011-02-23 12:23:32 51°34.069 2°59.711 39.9 11.7 42 18.8
2011-02-23 12:24:32 51°34.167 2°59.975 56.2 11.4 56 17
2011-02-23 12:25:32 51°34.261 3°0.246 58.2 11.5 58 15.5
2011-02-23 12:26:32 51°34.372 3°0.508 60.3 12.2 63 16.2
2011-02-23 12:27:32 51°34.492 3°0.724 17.7 11.2 4 16.5
2011-02-23 12:28:33 51°34.648 3°0.553 315.8 12.9 306 19.7
2011-02-23 12:29:33 51°34.773 3°0.269 315.2 13.2 308 23.4
2011-02-23 12:30:33 51°34.908 2°59.994 312 13.4 301 25.7
2011-02-23 12:31:33 51°35.027 2°59.697 308.1 13.2 301 24.2
2011-02-23 12:32:33 51°35.148 2°59.402 316.2 13.2 311 27.7
2011-02-23 12:33:33 51°35.237 2°59.095 276.4 13.4 267 28.6
2011-02-23 12:34:32 51°35.154 2°58.755 243.6 14.3 241 31.4
2011-02-23 12:35:33 51°35 2°58.467 222.2 14.2 224 30.4
2011-02-23 12:36:33 51°34.867 2°58.154 239.6 14.2 238 28.4
2011-02-23 12:37:33 51°34.73 2°57.841 230.4 14.3 231 31
2011-02-23 12:38:33 51°34.585 2°57.539 235 14.2 236 29.5
2011-02-23 12:39:33 51°34.441 2°57.238 230.4 14.4 234 31.4
2011-02-23 12:40:33 51°34.319 2°56.911 236.2 14.2 233 31.5
2011-02-23 12:41:33 51°34.185 2°56.598 240.9 14.3 238 31.2
2011-02-23 12:42:33 51°34.054 2°56.281 244.5 14.2 242 29.1
2011-02-23 12:43:33 51°33.915 2°55.976 241.5 14.2 242 29.7
2011-02-23 12:44:33 51°33.781 2°55.666 235.8 14.2 237 27.1
2011-02-23 12:45:33 51°33.64 2°55.37 223.9 14.1 225 28
2011-02-23 12:46:33 51°33.505 2°55.061 240.9 14 237 27.4
2011-02-23 12:47:33 51°33.365 2°54.763 242.4 14.2 243 26.6
2011-02-23 12:48:33 51°33.22 2°54.468 231.3 14.2 232 25.3
2011-02-23 12:49:33 51°33.092 2°54.151 233.5 14.1 231 26.4
2011-02-23 12:50:33 51°32.962 2°53.837 242.9 14.1 240 25.8
2011-02-23 12:51:33 51°32.83 2°53.527 243.2 14.1 242 25.4
2011-02-23 12:52:33 51°32.713 2°53.207 247 13.9 246 28
2011-02-23 12:53:33 51°32.589 2°52.896 240.8 14 240 24.3
2011-02-23 12:54:33 51°32.471 2°52.574 243.4 14 241 28.3
2011-02-23 12:55:33 51°32.35 2°52.255 241.2 14 240 28.8
2011-02-23 12:56:33 51°32.238 2°51.929 239.9 13.9 236 25.6
2011-02-23 12:57:33 51°32.112 2°51.615 244.6 14 243 27.7
2011-02-23 12:58:33 51°31.983 2°51.31 238.3 13.9 238 31
2011-02-23 12:59:33 51°31.872 2°50.99 235.9 13.8 235 27.6
2011-02-23 13:00:33 51°31.76 2°50.667 241.8 13.9 239 28
2011-02-23 13:01:33 51°31.638 2°50.351 242 13.9 240 29.4
2011-02-23 13:02:34 51°31.519 2°50.025 242 14 241 25.8
2011-02-23 13:03:32 51°31.401 2°49.722 241 13.6 241 30.7
2011-02-23 13:04:34 51°31.277 2°49.398 238.2 14 237 27.1
2011-02-23 13:05:32 51°31.164 2°49.09 238.9 13.8 238 30.4
2011-02-23 13:06:34 51°31.037 2°48.767 242.6 14 241 28
2011-02-23 13:07:32 51°30.908 2°48.477 235 14 235 28.1
2011-02-23 13:08:34 51°30.809 2°48.133 250.9 13.6 248 29.7
2011-02-23 13:09:32 51°30.725 2°47.805 250 13.7 248 27.8
2011-02-23 13:10:34 51°30.636 2°47.454 249.2 13.8 247 26.8
2011-02-23 13:11:34 51°30.552 2°47.112 249.3 13.7 248 24.6
2011-02-23 13:12:32 51°30.459 2°46.791 238 13.5 234 27.7
2011-02-23 13:13:34 51°30.309 2°46.503 231.6 13.8 230 26.1
2011-02-23 13:14:32 51°30.166 2°46.235 229.5 13.6 229 28
2011-02-23 13:15:34 51°30.016 2°45.942 230.1 13.6 232 27.2
2011-02-23 13:16:32 51°29.877 2°45.67 233.9 13.6 233 24.8
2011-02-23 13:17:34 51°29.741 2°45.363 236.1 13.6 235 27.5
2011-02-23 13:18:32 51°29.618 2°45.073 236.7 13.6 237 27.8
2011-02-23 13:19:32 51°29.495 2°44.771 238.4 13.3 238 29.5
2011-02-23 13:20:32 51°29.369 2°44.473 237.5 13.5 239 30
2011-02-23 13:21:32 51°29.241 2°44.182 235.2 13.6 236 30.9
2011-02-23 13:22:34 51°29.112 2°43.871 238 13.5 237 28.3
2011-02-23 13:23:32 51°28.991 2°43.581 234.8 13.6 234 30.7
2011-02-23 13:24:34 51°28.86 2°43.27 239.5 13.5 238 30.3
2011-02-23 13:25:32 51°28.74 2°42.976 237.6 13.6 239 28.5
2011-02-23 13:26:34 51°28.616 2°42.662 239.3 13.6 238 30.8
2011-02-23 13:27:32 51°28.503 2°42.368 238.9 13.3 239 27.7
2011-02-23 13:28:32 51°28.382 2°42.065 239 13.6 237 31.6
2011-02-23 13:29:32 51°28.262 2°41.761 239.4 13.3 239 32
2011-02-23 13:30:32 51°28.144 2°41.46 238.7 13.4 238 28.2
2011-02-23 13:31:34 51°28.021 2°41.148 239.1 13.3 238 30.2
2011-02-23 13:32:32 51°27.906 2°40.859 239.8 13.5 238 33
2011-02-23 13:33:34 51°27.783 2°40.547 239.5 13.4 238 33.3
2011-02-23 13:34:32 51°27.67 2°40.256 240.2 13.2 238 33.6
2011-02-23 13:35:34 51°27.548 2°39.948 239.3 13.4 237 31.9
2011-02-23 13:36:32 51°27.432 2°39.657 239 13.4 237 33.9
2011-02-23 13:37:33 51°27.269 2°39.444 193.1 12.5 186 34.9
2011-02-23 13:38:33 51°27.084 2°39.591 141 13.1 144 33.5
2011-02-23 13:39:33 51°26.906 2°39.791 145.2 13 147 32
2011-02-23 13:40:32 51°26.727 2°39.983 146.7 13.2 147 32.4
2011-02-23 13:41:33 51°26.542 2°40.182 146 13 146 31.5
2011-02-23 13:42:33 51°26.362 2°40.377 146.4 13.2 146 32.5
2011-02-23 13:43:32 51°26.185 2°40.569 146.3 13.1 148 31.5
2011-02-23 13:44:33 51°26.003 2°40.769 146.2 13.1 144 31.1
2011-02-23 13:45:33 51°25.823 2°40.964 145.4 13 146 29.2
2011-02-23 13:46:33 51°25.646 2°41.158 146.4 13 146 28.7
2011-02-23 13:47:33 51°25.467 2°41.356 147.2 13 146 28.4
2011-02-23 13:48:33 51°25.28 2°41.53 152.1 12.9 152 25.4
2011-02-23 13:49:33 51°25.091 2°41.701 151.5 13.1 151 27.4
2011-02-23 13:50:32 51°24.906 2°41.872 151.6 13 150 24.8
2011-02-23 13:51:33 51°24.713 2°42.047 151.1 13.1 151 24.3
2011-02-23 13:52:33 51°24.522 2°42.22 151.1 13.2 150 25.7
2011-02-23 13:53:32 51°24.337 2°42.393 150.8 13.1 149 21.8
2011-02-23 13:54:33 51°24.143 2°42.567 152.7 13.2 149 27.2
2011-02-23 13:55:33 51°23.955 2°42.738 152.6 13.1 151 28.5
2011-02-23 13:56:32 51°23.77 2°42.909 152.3 13.2 150 29.2
2011-02-23 13:57:33 51°23.577 2°43.08 152.9 12.9 152 29
2011-02-23 13:58:33 51°23.389 2°43.247 152.4 12.9 151 27.2
2011-02-23 13:59:33 51°23.2 2°43.415 152.5 12.9 152 28.5
2011-02-23 14:00:33 51°23.013 2°43.586 151.8 12.9 149 29
2011-02-23 14:01:33 51°22.827 2°43.758 151.6 13 149 26.5
2011-02-23 14:02:33 51°22.642 2°43.937 151.1 13.1 147 27.8
2011-02-23 14:03:32 51°22.462 2°44.116 150.8 12.9 149 26.6
2011-02-23 14:04:33 51°22.271 2°44.298 151.6 13.2 150 27.3
2011-02-23 14:05:33 51°22.082 2°44.477 151.1 13.1 148 26
2011-02-23 14:06:32 51°21.898 2°44.655 151 13.1 149 24.5
2011-02-23 14:07:33 51°21.71 2°44.843 151.7 13.2 147 24.5
2011-02-23 14:08:33 51°21.524 2°45.027 151.1 13.1 147 25.1
2011-02-23 14:09:32 51°21.344 2°45.208 151.1 13.1 147 27.5
2011-02-23 14:10:33 51°21.156 2°45.397 151.2 13 147 28.3
2011-02-23 14:11:33 51°20.978 2°45.58 152.2 12.7 149 28
2011-02-23 14:12:33 51°20.799 2°45.76 150.9 12.8 147 25.1
2011-02-23 14:13:33 51°20.62 2°45.945 151.5 12.9 148 23.8
2011-02-23 14:14:33 51°20.441 2°46.132 151.1 13 145 22.6
2011-02-23 14:15:32 51°20.263 2°46.318 152 13 148 17.3
2011-02-23 14:16:33 51°20.077 2°46.516 151.5 13.1 148 17
2011-02-23 14:17:33 51°19.893 2°46.704 152 13 147 20.8
2011-02-23 14:18:32 51°19.714 2°46.881 151.6 12.8 148 22.9
2011-02-23 14:19:33 51°19.531 2°47.065 151.6 12.8 149 23.7
2011-02-23 14:20:33 51°19.349 2°47.245 151.7 12.7 149 23.7
2011-02-23 14:21:33 51°19.168 2°47.428 151.7 12.9 148 22.8
2011-02-23 14:22:33 51°18.986 2°47.609 151.8 12.9 148 20.8
2011-02-23 14:23:33 51°18.803 2°47.791 151.1 13 147 18.4
2011-02-23 14:24:33 51°18.62 2°47.973 151.5 13 147 16.6
2011-02-23 14:25:33 51°18.437 2°48.16 151.4 13.1 148 14.8
2011-02-23 14:26:33 51°18.253 2°48.348 154.6 13.1 150 12.7
2011-02-23 14:27:33 51°18.066 2°48.525 155.1 13.1 149 12.4
2011-02-23 14:28:33 51°17.879 2°48.703 154.7 13.1 148 12.5
2011-02-23 14:29:32 51°17.693 2°48.864 159 12.9 153 13.7
2011-02-23 14:30:33 51°17.5 2°49.02 158.3 12.7 153 13.9
2011-02-23 14:31:33 51°17.313 2°49.173 159 12.6 154 14.7
2011-02-23 14:32:32 51°17.129 2°49.324 158 12.6 152 14.1
2011-02-23 14:33:33 51°16.941 2°49.484 158.6 12.6 152 12.3
2011-02-23 14:34:33 51°16.756 2°49.64 156.8 12.8 151 14.3
2011-02-23 14:35:33 51°16.571 2°49.805 154.6 12.8 147 15.7
2011-02-23 14:36:33 51°16.391 2°49.992 154.5 12.9 148 13.5
2011-02-23 14:37:33 51°16.21 2°50.182 154.5 13.1 146 13.2
2011-02-23 14:38:33 51°16.025 2°50.37 154.7 13.1 148 12.8
2011-02-23 14:39:32 51°15.845 2°50.56 153.9 13.1 147 15.5
2011-02-23 14:40:32 51°15.706 2°50.829 120.1 14 112 15.5
2011-02-23 14:41:32 51°15.616 2°51.176 119.8 14.1 113 15.4
2011-02-23 14:42:32 51°15.525 2°51.525 119.8 14.2 112 15.1
2011-02-23 14:43:32 51°15.435 2°51.869 119.4 13.2 112 15.1
2011-02-23 14:44:33 51°15.36 2°52.176 120.6 11.7 111 14.4
2011-02-23 14:45:32 51°15.291 2°52.464 120.1 11.7 111 14.1
2011-02-23 14:46:33 51°15.219 2°52.761 120.6 12 111 13.7
2011-02-23 14:47:32 51°15.145 2°53.065 120.9 12.7 112 13.1
2011-02-23 14:48:33 51°15.082 2°53.328 122.4 8.8 109 12.9
2011-02-23 14:49:32 51°15.049 2°53.528 119.7 7.5 103 12.8
2011-02-23 14:50:32 51°15.024 2°53.714 120.8 7 103 12.8
2011-02-23 14:51:32 51°14.995 2°53.9 121.6 8.7 107 12.7
2011-02-23 14:52:33 51°14.925 2°54.165 125.7 11.7 116 12
2011-02-23 14:53:32 51°14.835 2°54.446 128.3 12.5 118 14.1
2011-02-23 14:54:33 51°14.726 2°54.733 135.1 12.5 124 14.6
2011-02-23 14:55:33 51°14.596 2°54.973 147.2 11.3 135 14.3
2011-02-23 14:56:32 51°14.457 2°55.124 154.2 9.2 153 13
2011-02-23 14:57:33 51°14.356 2°55.209 152.2 5.7 152 13.3
2011-02-23 14:58:33 51°14.284 2°55.272 151.4 4.7 152 13.4
2011-02-23 14:59:35 51°14.213 2°55.335 151.4 4.8 151 -999
2011-02-23 15:00:36 51°14.119 2°55.413 154.4 7.3 154 -999
2011-02-23 15:01:36 51°14.002 2°55.501 155.5 7.8 155 13.9
2011-02-23 15:02:37 51°13.905 2°55.571 156.8 6 156 -999
2011-02-23 15:03:36 51°13.817 2°55.637 154.1 5.8 153 13.7
2011-02-23 15:04:37 51°13.75 2°55.724 132.6 4.4 131 -999
2011-02-23 15:05:37 51°13.71 2°55.808 129.4 3.7 126 -999
2011-02-23 15:06:36 51°13.679 2°55.884 121.5 3.1 118 11.3
2011-02-23 15:07:37 51°13.667 2°55.944 112.1 1.5 100 -999
2011-02-23 15:08:37 51°13.665 2°55.955 129.1 0.2 135 -999